Airfield :
LOGIN :

Register | Disclaimer

   EN    FR    IT 

 










Legend :    VFR   Marginal VFR   IFR   Intensive IFR   Very Intensive IFR
Visi :
Ceiling :
>= 8 km
>= 3000ft
5 to 8 km
1000 to 3000 ft
1500m to 5 km
500 to 1000 ft
800 to 1500m
200 to 500 ft
< 800m
< 200 ft
Symbols :   Thunderstorms  Fog  Heavy snow  Heavy precipitations  Wind > 20 kt
SIGMETs :     Misc.  Thunderstorms  Icing  Turbulence  Mountain Waves  Volcanic Ashes






- Airport Elevation : 325 ft
- IATA code : POX


LFPT - Pontoise

CURRENT METAR :
  • 080200Z AUTO 22010KT 9999 BKN021 OVC026 10/07 Q1013

EXPIRED METARs :
  • 080130Z AUTO 23010KT 9999 OVC020 10/07 Q1013
  • 080100Z AUTO 23012KT 9999 BKN018 OVC025 10/07 Q1013
  • 080030Z AUTO 23012KT 9999 BKN018 BKN023 OVC030 10/07 Q1014
  • 080000Z AUTO 21010KT 9999 FEW016 OVC031 10/07 Q1014
  • 072330Z AUTO 20007KT 9999 FEW015 OVC032 10/07 Q1015

TAF N/A
ATIS : +33 1 30 30 52 08



MET'MAP, your aeronautical weather chart ! - Copyright ORBIFLY December 2007 - Disclaimer

ORBIFLY MET'MAP TEAM :

Programming & Development : Alexandra Zaïnal
Concept & original design : Baudouin d'Aumeries
Assistance for programming : Marc-Olivier Méhu
Technical & hardware support : Manuel Goepfert

Contact : metmap@orbifly.com




SOURCES & CREDITS :

   NOAA